subscrever o vídeo do dia aeiou:
subscrição efectuada.
  • Ventos fortes em LPFL – 23/03/2014

    teste
    FAVORITO
    3.00/5
    Partilha no teu site ou blog:

    O Video é de 23 de Março e não de Fevereiro.

    METAR LPFL 231300Z 27018G32KT 220V310 2500 -SHRA BKN016 18/15 Q1017 RMK WIND RWY36 29023G37KT 240V320 POS MID 28021G38KT 240V320 T/TD FM BACK-UP

    This video is being managed by Newsflare. To use this video for broadcast or in a commercial player go to:

    http://www.newsflare.com/video/12386

    or email: newsdesk@newsflare.com
    or call: +44 (0) 8432 895 191

Comentários

A preparar comentários...
  • portal aeiou.pt

    Chat Bla Bla

    mail grátis aeiou    zap aeiou

  • Área Pessoal